EGPC - Wick
Distance from station: E 5mi, 14km
Updated: 12/17/2017 7:20pm
Few Clouds
Few Clouds
 Wind from W
Wind: W 3 mph , 6 km/h
Temperature: 37°F , 3°C
Dew Point: 36°F , 2°C
Humidity: 93%
Barometer: 30.12 inHg , 1020 hPa
Clouds: Few Clouds
Visibility: 6 miles , 10 km
Cloud details: Few Clouds 3800 ft
2017/12/18 03:20 EGPC 180320Z AUTO 26003KT 9999 FEW038/// 03/02 Q1020